Hauptseite
METAR-TAF:

METAR-TAF

Flughäfen :

Memmingen, Deutschland

Breite: 47-59-33N, Länge: 10-14-37E, Höhe: 633 m

Beobachtung

Neuester Wetterbericht von vor 29 Minuten, um 23:50 UTC
Windstille
Temperatur 1°C
Luftfeuchtigkeit 100%
Luftdruck 1003 hPa
Sichtweite 10 km oder mehr

METAR: EDJA 122350Z AUTO 00000KT 9999 // BKN061/// OVC071/// 01/01 Q1003

Zeit: 01:19 (00:19 UTC)

Prognose

Neuester Wetterbericht von vor 2 Stunden und 48 Minuten, um 21:31 UTC
Gültige Prognose vom 12 um 21 UTC bis 13 um 03 UTC
Wind 5 kt aus Süd
Sichtweite 10 km oder mehr
keine Wolken unter 1500 m und keine Kumulonimbus oder Gewitterwolken

TAF: EDJA 122131Z 1221/1303 19005KT CAVOK

Wetterbeobachtungen und Prognosen von mehr als 4000 Flughäfen (METAR und TAF Bericht).

Die verfügbaren Stationen werden durch gelbe und rote Markierungen auf der Karte dargestellt.

Führen Sie die Maus auf sie, um den Namen der Station zu sehen.

Darauf klicken, um die Beobachtung von Wetterbeobachtungen und Prognosen zu sehen.

Um die Karte zu ändern : klicken Sie auf den grünen Tasten mit einem schwarzen Kreuz Zum Vergrößern, auf den grünen Button mit einem Gedankenstrich zu verkleinern, oder auf die grünen Pfeile für benachbarte Karten.


METAR-TAF: